Time;durP1;ratioP1;P1;durP2;ratioP2;P2;SDS_P1;SDS_P2;PMS_P1;PMS_P2;Temp;Humidity;BMP_temperature;BMP_pressure;BME280_temperature;BME280_humidity;BME280_pressure;Samples;Min_cycle;Max_cycle;Signal;HPM_P1;HPM_P2
2021/09/17 00:01:57;;;;;;;7.03;3.78;;;8.60;81.00;;;;;;5052690;28;20474;-85
2021/09/17 00:04:23;;;;;;;5.05;3.50;;;8.60;81.20;;;;;;5053445;28;20021;-86
2021/09/17 00:06:50;;;;;;;7.15;3.67;;;8.60;81.40;;;;;;5052414;28;20088;-81
2021/09/17 00:09:17;;;;;;;5.18;3.70;;;8.60;81.50;;;;;;5055907;28;20021;-83
2021/09/17 00:11:43;;;;;;;5.35;3.47;;;8.60;81.80;;;;;;5062447;28;20040;-81
2021/09/17 00:14:09;;;;;;;4.50;3.63;;;8.60;81.90;;;;;;5051869;28;20021;-82
2021/09/17 00:16:35;;;;;;;4.35;3.45;;;8.50;81.70;;;;;;5053087;28;20035;-84
2021/09/17 00:19:01;;;;;;;5.63;3.80;;;8.50;81.90;;;;;;5055557;28;20025;-85
2021/09/17 00:21:27;;;;;;;5.40;3.15;;;8.50;82.40;;;;;;5055717;28;20033;-85
2021/09/17 00:23:53;;;;;;;6.10;3.70;;;8.50;82.50;;;;;;5055718;28;20067;-84
2021/09/17 00:26:18;;;;;;;5.10;3.30;;;8.50;82.70;;;;;;5050994;28;20025;-86
2021/09/17 00:28:44;;;;;;;7.53;3.35;;;8.50;82.80;;;;;;5046005;28;20024;-84
2021/09/17 00:31:10;;;;;;;6.32;3.60;;;8.50;82.80;;;;;;5038948;28;20042;-84
2021/09/17 00:33:35;;;;;;;5.68;3.40;;;8.40;83.00;;;;;;5043858;28;20025;-84
2021/09/17 00:36:02;;;;;;;12.30;3.95;;;8.50;83.10;;;;;;5055284;28;20025;-82
2021/09/17 00:38:28;;;;;;;5.65;3.55;;;8.50;83.50;;;;;;5056922;28;20096;-82
2021/09/17 00:40:54;;;;;;;6.28;4.15;;;8.50;83.60;;;;;;5056826;28;20025;-82
2021/09/17 00:43:20;;;;;;;7.03;3.83;;;8.50;83.40;;;;;;5037213;28;20386;-83
2021/09/17 00:45:46;;;;;;;5.20;3.53;;;8.50;83.30;;;;;;5055443;28;20025;-84
2021/09/17 00:48:13;;;;;;;9.48;4.13;;;8.50;83.50;;;;;;5037096;28;20032;-85
2021/09/17 00:50:38;;;;;;;5.20;3.42;;;8.50;83.40;;;;;;5055072;28;20068;-84
2021/09/17 00:53:04;;;;;;;4.95;3.53;;;8.50;83.40;;;;;;5055135;28;20025;-84
2021/09/17 00:55:32;;;;;;;4.78;3.80;;;8.50;83.60;;;;;;5055293;28;20560;-84
2021/09/17 00:57:57;;;;;;;4.85;3.70;;;8.50;83.60;;;;;;5055027;28;20367;-85
2021/09/17 01:00:23;;;;;;;4.88;3.83;;;8.50;83.70;;;;;;5054828;28;20033;-85
2021/09/17 01:02:49;;;;;;;5.43;4.22;;;8.50;83.80;;;;;;5055567;28;20029;-86
2021/09/17 01:05:16;;;;;;;5.47;3.80;;;8.40;83.80;;;;;;5055203;28;20104;-83
2021/09/17 01:07:43;;;;;;;3.70;3.30;;;8.40;83.90;;;;;;5054739;28;20390;-81
2021/09/17 01:10:09;;;;;;;5.65;4.05;;;8.40;84.00;;;;;;5055100;28;20029;-79
2021/09/17 01:12:37;;;;;;;4.35;3.78;;;8.40;84.00;;;;;;5037214;28;20482;-81
2021/09/17 01:15:05;;;;;;;5.18;4.20;;;8.40;84.30;;;;;;5057533;28;20029;-83
2021/09/17 01:17:36;;;;;;;5.80;4.15;;;8.30;84.30;;;;;;5054751;28;20033;-81
2021/09/17 01:20:05;;;;;;;5.20;4.10;;;8.30;84.40;;;;;;5054337;28;20025;-83
2021/09/17 01:22:30;;;;;;;6.15;4.15;;;8.30;84.50;;;;;;5040712;28;20017;-82
2021/09/17 01:24:56;;;;;;;5.47;4.00;;;8.30;84.70;;;;;;5054135;28;20035;-82
2021/09/17 01:27:23;;;;;;;4.25;3.78;;;8.30;84.90;;;;;;5053408;28;20052;-81
2021/09/17 01:29:50;;;;;;;6.33;4.63;;;8.30;84.70;;;;;;5053551;28;20568;-80
2021/09/17 01:32:16;;;;;;;5.93;4.22;;;8.30;84.70;;;;;;5053703;28;20032;-79
2021/09/17 01:34:42;;;;;;;6.80;3.95;;;8.30;84.70;;;;;;5053896;28;20028;-80
2021/09/17 01:37:08;;;;;;;5.15;3.80;;;8.30;84.80;;;;;;5054072;28;20021;-80
2021/09/17 01:39:34;;;;;;;6.25;4.45;;;8.30;84.90;;;;;;5036080;28;20031;-79
2021/09/17 01:42:00;;;;;;;5.38;4.03;;;8.30;85.00;;;;;;5044348;28;20029;-80
2021/09/17 01:44:26;;;;;;;5.80;3.65;;;8.30;84.80;;;;;;5053344;28;20021;-81
2021/09/17 01:46:51;;;;;;;5.63;3.80;;;8.30;84.70;;;;;;5053611;28;20066;-79
2021/09/17 01:49:17;;;;;;;5.20;4.28;;;8.30;84.60;;;;;;5053308;28;20029;-81
2021/09/17 01:51:43;;;;;;;5.97;4.22;;;8.30;84.70;;;;;;5053423;28;20382;-80
2021/09/17 01:54:09;;;;;;;5.65;3.75;;;8.40;84.70;;;;;;5053402;28;20036;-80
2021/09/17 01:56:35;;;;;;;6.45;4.55;;;8.30;84.50;;;;;;5052345;28;20489;-80
2021/09/17 01:59:01;;;;;;;6.10;4.15;;;8.40;84.50;;;;;;5051722;28;20032;-80
2021/09/17 02:01:27;;;;;;;10.38;4.63;;;8.30;84.50;;;;;;5019639;28;20479;-80
2021/09/17 02:03:53;;;;;;;7.03;4.57;;;8.30;84.80;;;;;;5052391;28;20020;-80
2021/09/17 02:06:24;;;;;;;7.50;4.28;;;8.40;85.00;;;;;;5053353;28;20033;-79
2021/09/17 02:08:51;;;;;;;6.00;4.72;;;8.40;85.00;;;;;;5060941;28;20017;-80
2021/09/17 02:11:17;;;;;;;5.90;4.20;;;8.40;85.10;;;;;;5060828;28;20037;-80
2021/09/17 02:13:43;;;;;;;6.07;4.63;;;8.40;85.10;;;;;;5053346;28;20377;-80
2021/09/17 02:16:09;;;;;;;5.63;3.70;;;8.40;85.20;;;;;;5053414;28;20116;-79
2021/09/17 02:18:35;;;;;;;6.18;4.32;;;8.40;85.40;;;;;;5053004;28;20105;-80
2021/09/17 02:21:01;;;;;;;9.07;4.40;;;8.30;85.60;;;;;;5052805;28;20032;-81
2021/09/17 02:23:27;;;;;;;5.75;4.60;;;8.30;85.50;;;;;;5052935;28;20025;-79
2021/09/17 02:25:52;;;;;;;5.78;4.63;;;8.30;85.60;;;;;;5054127;28;20056;-80
2021/09/17 02:28:18;;;;;;;7.32;4.57;;;8.30;85.90;;;;;;5053910;28;20017;-80
2021/09/17 02:30:44;;;;;;;6.40;4.47;;;8.20;86.20;;;;;;5052515;28;20045;-80
2021/09/17 02:33:10;;;;;;;7.40;4.57;;;8.20;86.50;;;;;;5052878;28;20029;-79
2021/09/17 02:35:36;;;;;;;8.90;5.00;;;8.20;86.50;;;;;;5052582;28;20075;-80
2021/09/17 02:38:02;;;;;;;6.00;4.30;;;8.30;86.50;;;;;;5052470;28;20025;-80
2021/09/17 02:40:30;;;;;;;7.00;5.28;;;8.30;86.40;;;;;;5051979;28;20100;-80
2021/09/17 02:42:56;;;;;;;6.45;4.63;;;8.30;86.40;;;;;;5052643;28;20021;-80
2021/09/17 02:45:22;;;;;;;6.15;4.75;;;8.30;86.20;;;;;;5034722;28;20123;-80
2021/09/17 02:47:48;;;;;;;5.63;4.68;;;8.20;86.10;;;;;;5052428;28;20075;-79
2021/09/17 02:50:14;;;;;;;7.28;5.40;;;8.20;86.30;;;;;;5052499;28;20400;-80
2021/09/17 02:52:40;;;;;;;6.05;5.03;;;8.10;86.30;;;;;;5052511;28;20039;-79
2021/09/17 02:55:06;;;;;;;6.82;5.28;;;8.10;86.60;;;;;;5034676;28;20017;-80
2021/09/17 02:57:32;;;;;;;9.52;5.00;;;8.10;86.90;;;;;;5052716;28;20028;-81
2021/09/17 02:59:58;;;;;;;10.38;6.05;;;8.10;86.90;;;;;;5034925;28;20024;-80
2021/09/17 03:02:24;;;;;;;7.20;4.97;;;8.20;86.90;;;;;;5052518;28;20032;-80
2021/09/17 03:04:49;;;;;;;9.98;5.20;;;8.20;86.80;;;;;;5052726;28;20052;-80
2021/09/17 03:07:15;;;;;;;5.95;5.15;;;8.20;86.70;;;;;;5034423;28;20033;-80
2021/09/17 03:09:41;;;;;;;8.00;4.65;;;8.10;86.70;;;;;;5052382;28;20025;-81
2021/09/17 03:12:07;;;;;;;8.10;5.50;;;8.10;87.50;;;;;;5052248;28;20029;-81
2021/09/17 03:14:33;;;;;;;5.63;4.78;;;8.10;87.00;;;;;;5052641;28;20032;-81
2021/09/17 03:16:59;;;;;;;8.55;5.18;;;8.10;86.90;;;;;;5051448;28;20021;-82
2021/09/17 03:19:24;;;;;;;6.68;5.25;;;8.10;87.00;;;;;;5053064;28;20029;-79
2021/09/17 03:21:50;;;;;;;6.47;5.07;;;8.10;87.10;;;;;;5052899;28;20025;-80
2021/09/17 03:24:16;;;;;;;6.93;5.43;;;8.10;87.30;;;;;;5035115;28;20025;-80
2021/09/17 03:26:42;;;;;;;8.73;4.68;;;8.00;87.30;;;;;;5052593;28;20033;-81
2021/09/17 03:29:08;;;;;;;9.13;5.00;;;8.00;87.30;;;;;;5034033;28;20060;-80
2021/09/17 03:31:34;;;;;;;5.85;4.78;;;8.00;87.30;;;;;;5034153;28;20059;-81
2021/09/17 03:33:59;;;;;;;7.35;5.88;;;8.10;87.40;;;;;;5052261;28;20021;-81
2021/09/17 03:36:26;;;;;;;7.88;5.25;;;8.10;87.10;;;;;;5053009;28;20032;-79
2021/09/17 03:38:55;;;;;;;8.80;5.70;;;8.10;87.00;;;;;;5064528;28;20035;-79
2021/09/17 03:41:21;;;;;;;7.90;6.05;;;8.10;87.10;;;;;;5053437;28;20029;-81
2021/09/17 03:43:47;;;;;;;8.10;5.03;;;8.10;87.30;;;;;;5034829;28;20021;-81
2021/09/17 03:46:13;;;;;;;7.90;5.63;;;8.10;87.30;;;;;;5053140;28;20024;-80
2021/09/17 03:48:39;;;;;;;7.68;5.95;;;8.10;87.20;;;;;;5052277;28;20114;-80
2021/09/17 03:51:05;;;;;;;8.95;5.90;;;8.20;87.40;;;;;;5054039;28;20450;-80
2021/09/17 03:53:31;;;;;;;7.40;5.55;;;8.20;87.50;;;;;;5055905;28;20086;-80
2021/09/17 03:55:57;;;;;;;10.55;5.30;;;8.30;87.30;;;;;;5055905;28;20032;-82
2021/09/17 03:58:26;;;;;;;6.28;5.18;;;8.30;86.80;;;;;;5055673;28;20025;-81
2021/09/17 04:00:52;;;;;;;7.72;6.03;;;8.30;86.80;;;;;;5038577;28;20440;-80
2021/09/17 04:03:18;;;;;;;9.48;5.40;;;8.40;86.60;;;;;;5060569;28;20461;-80
2021/09/17 04:05:44;;;;;;;6.30;4.68;;;8.50;86.10;;;;;;5063853;28;20029;-80
2021/09/17 04:08:10;;;;;;;7.10;5.55;;;8.50;85.40;;;;;;5056557;28;20347;-81
2021/09/17 04:10:35;;;;;;;6.07;4.60;;;8.50;84.80;;;;;;5055762;28;20570;-81
2021/09/17 04:13:01;;;;;;;6.05;4.78;;;8.50;84.40;;;;;;5056393;28;20382;-80
2021/09/17 04:15:27;;;;;;;10.25;6.40;;;8.40;84.30;;;;;;5037541;28;20033;-80
2021/09/17 04:17:53;;;;;;;8.98;5.90;;;8.40;84.80;;;;;;5055362;28;20032;-79
2021/09/17 04:20:18;;;;;;;8.38;5.85;;;8.40;85.20;;;;;;5055429;28;20382;-81
2021/09/17 04:22:44;;;;;;;7.88;5.10;;;8.40;85.40;;;;;;5054955;28;20083;-80
2021/09/17 04:25:10;;;;;;;9.45;5.93;;;8.40;85.80;;;;;;5055468;28;20021;-83
2021/09/17 04:27:36;;;;;;;9.50;6.50;;;8.40;85.00;;;;;;5055101;28;20096;-82
2021/09/17 04:30:04;;;;;;;10.15;5.53;;;8.40;84.50;;;;;;5055298;28;20076;-81
2021/09/17 04:32:31;;;;;;;9.93;5.80;;;8.50;84.40;;;;;;5056017;28;20037;-81
2021/09/17 04:34:56;;;;;;;7.00;5.65;;;8.50;84.30;;;;;;5037896;28;20028;-79
2021/09/17 04:37:22;;;;;;;9.50;5.60;;;8.60;84.50;;;;;;5056155;28;20028;-80
2021/09/17 04:39:48;;;;;;;8.07;5.88;;;8.60;84.20;;;;;;5055843;28;20459;-80
2021/09/17 04:42:14;;;;;;;10.43;6.07;;;8.60;83.70;;;;;;5055078;28;20021;-80
2021/09/17 04:44:39;;;;;;;8.45;6.53;;;8.60;84.00;;;;;;5054732;28;20017;-80
2021/09/17 04:47:05;;;;;;;10.52;7.63;;;8.60;84.00;;;;;;5037213;28;20033;-81
2021/09/17 04:49:31;;;;;;;9.30;7.13;;;8.70;83.70;;;;;;5055065;28;20025;-80
2021/09/17 04:51:57;;;;;;;11.57;7.78;;;8.80;83.30;;;;;;5054759;28;20542;-80
2021/09/17 04:54:23;;;;;;;13.52;6.97;;;8.80;82.80;;;;;;5054639;28;20025;-80
2021/09/17 04:56:48;;;;;;;7.65;5.88;;;8.70;82.50;;;;;;5054791;28;20099;-80
2021/09/17 04:59:14;;;;;;;8.13;6.57;;;8.70;82.10;;;;;;5052421;28;20025;-81
2021/09/17 05:01:40;;;;;;;8.68;6.35;;;8.60;81.10;;;;;;5054038;28;20234;-81
2021/09/17 05:04:06;;;;;;;12.55;7.60;;;8.60;81.10;;;;;;5054995;28;20024;-81
2021/09/17 05:06:32;;;;;;;7.75;6.05;;;8.60;81.20;;;;;;5054486;28;20107;-80
2021/09/17 05:08:59;;;;;;;12.38;6.60;;;8.60;80.90;;;;;;5054468;28;20013;-79
2021/09/17 05:11:25;;;;;;;10.25;6.40;;;8.60;81.10;;;;;;5054752;28;20029;-80
2021/09/17 05:13:51;;;;;;;11.07;7.70;;;8.60;81.30;;;;;;5054908;28;20029;-80
2021/09/17 05:16:16;;;;;;;7.43;5.85;;;8.70;81.50;;;;;;5054382;28;20028;-79
2021/09/17 05:18:43;;;;;;;9.05;7.07;;;8.70;80.70;;;;;;5042845;28;20065;-82
2021/09/17 05:21:10;;;;;;;8.25;6.43;;;8.70;81.20;;;;;;5037489;28;20115;-81
2021/09/17 05:23:35;;;;;;;12.68;7.75;;;8.70;80.40;;;;;;5054127;28;20031;-80
2021/09/17 05:26:02;;;;;;;10.25;5.50;;;8.70;80.30;;;;;;5053993;28;20481;-82
2021/09/17 05:28:29;;;;;;;10.57;6.35;;;8.80;79.70;;;;;;5055048;28;20378;-81
2021/09/17 05:30:55;;;;;;;10.93;6.33;;;8.80;79.80;;;;;;5058727;28;20041;-81
2021/09/17 05:33:21;;;;;;;16.95;6.88;;;8.80;79.60;;;;;;5057725;28;20294;-81
2021/09/17 05:35:47;;;;;;;11.18;5.88;;;8.90;79.40;;;;;;5054071;28;20017;-82
2021/09/17 05:38:12;;;;;;;8.50;6.78;;;8.90;79.40;;;;;;5056584;28;20092;-80
2021/09/17 05:40:38;;;;;;;13.85;7.10;;;9.00;78.70;;;;;;5055332;28;20379;-82
2021/09/17 05:43:04;;;;;;;8.57;6.88;;;9.00;78.90;;;;;;5054789;28;20473;-83
2021/09/17 05:45:30;;;;;;;9.27;6.85;;;9.00;78.90;;;;;;5054240;28;20032;-81
2021/09/17 05:47:56;;;;;;;11.88;7.25;;;9.10;79.00;;;;;;5054926;28;20071;-82
2021/09/17 05:50:22;;;;;;;10.57;6.40;;;9.20;79.00;;;;;;5054372;28;20078;-83
2021/09/17 05:52:47;;;;;;;12.30;7.18;;;9.20;78.10;;;;;;5037355;28;20021;-82
2021/09/17 05:55:13;;;;;;;9.38;6.60;;;9.20;78.20;;;;;;5053809;28;20017;-82
2021/09/17 05:57:39;;;;;;;14.25;6.63;;;9.20;76.80;;;;;;5054881;28;20021;-81
2021/09/17 06:00:07;;;;;;;10.45;6.30;;;9.20;76.70;;;;;;5054130;28;20025;-85
2021/09/17 06:02:32;;;;;;;;;;;9.10;76.80;;;;;;5056707;28;20029;-82
2021/09/17 06:04:58;;;;;;;15.25;6.47;;;9.20;77.30;;;;;;5059433;28;19912;-83
2021/09/17 06:07:24;;;;;;;8.00;5.53;;;9.20;76.40;;;;;;5053904;28;20033;-85
2021/09/17 06:09:49;;;;;;;8.20;5.90;;;9.10;76.10;;;;;;5053903;28;20017;-82
2021/09/17 06:12:15;;;;;;;9.10;6.00;;;9.00;76.20;;;;;;5053455;28;20033;-83
2021/09/17 06:14:41;;;;;;;10.05;5.40;;;9.00;76.20;;;;;;5052619;28;20100;-81
2021/09/17 06:17:07;;;;;;;9.07;6.65;;;9.00;75.80;;;;;;5053477;28;20032;-82
2021/09/17 06:19:33;;;;;;;13.18;7.10;;;9.00;75.90;;;;;;5035802;28;20028;-84
2021/09/17 06:21:59;;;;;;;12.07;6.25;;;9.00;76.10;;;;;;5053899;28;20107;-82
2021/09/17 06:24:24;;;;;;;12.40;6.93;;;9.00;75.80;;;;;;5053200;28;20100;-85
2021/09/17 06:26:50;;;;;;;7.47;5.65;;;8.90;76.10;;;;;;5053611;28;20025;-84
2021/09/17 06:29:16;;;;;;;9.60;6.18;;;8.90;76.10;;;;;;5049964;28;20018;-85
2021/09/17 06:31:42;;;;;;;10.27;6.40;;;8.80;76.50;;;;;;5043197;28;20041;-83
2021/09/17 06:34:08;;;;;;;8.73;6.30;;;8.80;76.10;;;;;;5053543;28;20360;-81
2021/09/17 06:36:34;;;;;;;14.88;6.45;;;8.70;76.20;;;;;;5035392;28;20040;-81
2021/09/17 06:39:03;;;;;;;9.70;7.78;;;8.60;76.60;;;;;;5053929;28;20032;-81
2021/09/17 06:41:29;;;;;;;10.40;6.57;;;8.70;76.90;;;;;;5035059;28;20031;-81
2021/09/17 06:43:55;;;;;;;8.45;6.22;;;8.80;76.90;;;;;;5053175;28;20476;-79
2021/09/17 06:46:21;;;;;;;9.43;5.95;;;8.80;75.10;;;;;;5051241;28;20497;-82
2021/09/17 06:48:47;;;;;;;10.07;6.88;;;8.70;74.70;;;;;;5053200;28;20021;-82
2021/09/17 06:51:13;;;;;;;12.60;7.68;;;8.60;74.50;;;;;;5054313;28;20032;-81
2021/09/17 06:53:38;;;;;;;10.80;7.40;;;8.60;74.50;;;;;;5052948;28;20017;-81
2021/09/17 06:56:04;;;;;;;13.43;7.88;;;8.60;74.10;;;;;;5051969;28;20474;-82
2021/09/17 06:58:33;;;;;;;13.48;7.45;;;8.60;74.50;;;;;;5045334;28;20534;-80
2021/09/17 07:01:00;;;;;;;10.45;7.28;;;8.70;74.50;;;;;;5027739;28;20021;-81
2021/09/17 07:03:26;;;;;;;9.20;6.88;;;8.70;74.20;;;;;;5052518;28;20048;-83
2021/09/17 07:05:52;;;;;;;12.52;7.30;;;8.70;74.20;;;;;;5052908;28;20052;-83
2021/09/17 07:08:19;;;;;;;7.25;5.57;;;8.80;73.40;;;;;;5052433;28;20025;-81
2021/09/17 07:10:46;;;;;;;6.40;4.97;;;8.70;70.90;;;;;;5052044;28;20028;-80
2021/09/17 07:13:16;;;;;;;8.57;5.53;;;8.70;66.70;;;;;;5052898;28;20290;-83
2021/09/17 07:15:42;;;;;;;6.70;5.25;;;8.70;67.70;;;;;;5052589;28;20381;-83
2021/09/17 07:18:09;;;;;;;7.18;5.00;;;8.70;67.40;;;;;;5051433;28;20028;-80
2021/09/17 07:20:37;;;;;;;5.13;3.92;;;8.70;65.10;;;;;;5052646;28;20109;-82
2021/09/17 07:23:03;;;;;;;;;;;8.70;64.70;;;;;;5053113;28;20071;-82
2021/09/17 07:25:30;;;;;;;11.88;7.20;;;8.70;65.70;;;;;;5053728;28;19904;-81
2021/09/17 07:27:56;;;;;;;12.17;5.97;;;8.70;65.40;;;;;;5059015;28;20074;-81
2021/09/17 07:30:23;;;;;;;9.10;5.15;;;8.70;65.10;;;;;;5041119;28;20286;-82
2021/09/17 07:32:50;;;;;;;11.63;5.47;;;8.80;64.10;;;;;;5059517;28;20017;-81
2021/09/17 07:35:16;;;;;;;7.82;5.60;;;8.80;64.20;;;;;;5059626;28;20021;-80
2021/09/17 07:37:43;;;;;;;7.68;6.03;;;8.90;64.10;;;;;;5045362;28;20486;-84
2021/09/17 07:40:14;;;;;;;6.57;4.63;;;8.90;63.60;;;;;;5063369;28;20025;-82
2021/09/17 07:42:45;;;;;;;9.23;5.00;;;9.10;63.30;;;;;;5060884;28;20021;-82
2021/09/17 07:45:13;;;;;;;9.10;5.60;;;9.20;62.70;;;;;;5060599;28;20025;-83
2021/09/17 07:47:39;;;;;;;6.15;4.68;;;9.30;61.50;;;;;;5042614;28;20078;-83
2021/09/17 07:50:07;;;;;;;8.13;5.60;;;9.20;61.60;;;;;;5042609;28;20123;-83
2021/09/17 07:52:33;;;;;;;8.70;4.72;;;9.20;61.90;;;;;;5063317;28;20024;-81
2021/09/17 07:54:59;;;;;;;7.10;4.85;;;9.20;60.90;;;;;;5062522;28;20078;-82
2021/09/17 07:57:25;;;;;;;7.10;4.97;;;9.20;61.10;;;;;;5060578;28;20037;-82
2021/09/17 07:59:51;;;;;;;7.43;4.93;;;9.20;61.30;;;;;;5060164;28;20406;-81
2021/09/17 08:02:17;;;;;;;8.38;5.97;;;9.30;61.20;;;;;;5059325;28;20024;-82
2021/09/17 08:04:43;;;;;;;7.78;5.35;;;9.40;61.20;;;;;;5062424;28;20032;-82
2021/09/17 08:07:09;;;;;;;12.13;5.38;;;9.40;60.90;;;;;;5058782;28;20079;-80
2021/09/17 08:09:35;;;;;;;8.25;5.88;;;9.40;60.40;;;;;;5056594;28;20363;-82
2021/09/17 08:12:01;;;;;;;6.70;5.13;;;9.40;60.20;;;;;;5057877;28;20474;-81
2021/09/17 08:14:27;;;;;;;9.02;4.90;;;9.40;59.50;;;;;;5052079;28;20031;-85
2021/09/17 08:16:53;;;;;;;9.23;5.10;;;9.30;59.50;;;;;;5055633;28;20021;-85
2021/09/17 08:19:20;;;;;;;6.25;4.88;;;9.40;59.50;;;;;;5046096;28;20446;-87
2021/09/17 08:21:45;;;;;;;14.55;8.80;;;9.40;59.60;;;;;;5059046;28;20017;-81
2021/09/17 08:24:18;;;;;;;6.20;3.42;;;9.40;59.40;;;;;;5058965;28;20475;-83
2021/09/17 08:26:48;;;;;;;7.53;5.43;;;9.40;57.40;;;;;;5038420;28;20543;-82
2021/09/17 08:29:15;;;;;;;7.13;4.22;;;9.30;58.10;;;;;;5058387;28;20028;-82
2021/09/17 08:31:41;;;;;;;8.40;5.43;;;9.30;58.30;;;;;;5058550;28;20414;-83
2021/09/17 08:34:08;;;;;;;11.90;5.43;;;9.30;58.70;;;;;;5057880;28;20078;-83
2021/09/17 08:36:35;;;;;;;7.35;4.85;;;9.40;57.90;;;;;;5057473;28;20390;-87
2021/09/17 08:39:02;;;;;;;7.13;4.90;;;9.40;57.20;;;;;;5055946;28;20009;-84
2021/09/17 08:41:29;;;;;;;9.83;5.43;;;9.40;58.10;;;;;;5046938;28;20115;-83
2021/09/17 08:43:55;;;;;;;7.70;5.10;;;9.30;58.00;;;;;;5055223;28;20187;-83
2021/09/17 08:46:21;;;;;;;9.05;5.72;;;9.40;58.30;;;;;;5056885;28;20064;-83
2021/09/17 08:48:51;;;;;;;5.65;4.35;;;9.50;57.30;;;;;;5057490;28;20029;-84
2021/09/17 08:51:29;;;;;;;7.07;4.55;;;9.50;57.50;;;;;;5056821;28;20037;-84
2021/09/17 08:53:55;;;;;;;6.32;3.95;;;9.50;56.70;;;;;;5038342;28;20382;-85
2021/09/17 08:56:21;;;;;;;5.35;4.25;;;9.40;56.50;;;;;;5056516;28;20021;-83
2021/09/17 08:58:48;;;;;;;8.48;4.70;;;9.40;56.90;;;;;;5055134;28;20025;-83
2021/09/17 09:01:33;;;;;;;6.40;4.03;;;9.50;57.00;;;;;;5037089;28;20029;-84
2021/09/17 09:04:04;;;;;;;11.20;5.15;;;9.60;57.00;;;;;;5056755;28;20029;-85
2021/09/17 09:06:37;;;;;;;8.55;5.05;;;9.60;57.00;;;;;;5055153;28;20021;-84
2021/09/17 09:09:13;;;;;;;7.13;5.30;;;9.70;57.00;;;;;;5037169;28;20083;-86
2021/09/17 09:11:38;;;;;;;13.48;5.88;;;9.80;56.60;;;;;;5054407;28;20040;-84
2021/09/17 09:14:09;;;;;;;8.93;5.38;;;9.90;56.70;;;;;;5037385;28;20433;-84
2021/09/17 09:16:46;;;;;;;9.57;6.03;;;10.10;56.30;;;;;;5054682;28;20039;-85
2021/09/17 09:19:17;;;;;;;7.78;5.10;;;10.20;56.20;;;;;;5056180;28;20021;-85
2021/09/17 09:21:43;;;;;;;7.43;5.00;;;10.30;56.10;;;;;;5040597;28;20041;-85
2021/09/17 09:24:20;;;;;;;9.95;5.88;;;10.40;55.80;;;;;;5055034;28;20028;-85
2021/09/17 09:27:09;;;;;;;8.98;5.50;;;10.40;55.90;;;;;;5054506;28;20028;-87
2021/09/17 09:29:36;;;;;;;7.50;5.47;;;10.30;55.90;;;;;;5035782;28;20127;-84
2021/09/17 09:32:02;;;;;;;6.60;5.03;;;10.20;56.00;;;;;;5036815;28;20037;-84
2021/09/17 09:34:49;;;;;;;9.77;5.43;;;10.30;56.10;;;;;;5054632;28;20049;-85
2021/09/17 09:37:17;;;;;;;8.52;5.72;;;10.30;56.10;;;;;;5053866;28;20060;-84
2021/09/17 09:39:57;;;;;;;10.75;6.68;;;10.30;55.80;;;;;;5054219;28;20378;-81
2021/09/17 09:42:49;;;;;;;9.15;5.95;;;10.40;55.90;;;;;;5053968;28;20029;-80
2021/09/17 09:45:20;;;;;;;7.47;5.13;;;10.60;56.30;;;;;;5039427;28;20513;-83
2021/09/17 09:47:48;;;;;;;6.82;5.03;;;10.80;55.40;;;;;;5056865;28;20490;-85
2021/09/17 09:50:32;;;;;;;9.50;5.00;;;10.70;54.20;;;;;;5056575;28;20421;-83
2021/09/17 09:53:01;;;;;;;5.72;4.85;;;10.70;54.50;;;;;;5058318;28;20033;-85
2021/09/17 09:55:28;;;;;;;8.95;5.95;;;10.90;54.40;;;;;;5037014;28;20060;-82
2021/09/17 09:57:55;;;;;;;6.75;5.15;;;10.90;54.50;;;;;;5055557;28;20025;-83
2021/09/17 10:00:23;;;;;;;13.25;6.57;;;11.10;54.20;;;;;;5036240;28;20021;-82
2021/09/17 10:02:50;;;;;;;7.00;5.88;;;11.20;54.50;;;;;;5053900;28;20021;-84
2021/09/17 10:05:20;;;;;;;8.57;5.43;;;11.10;53.80;;;;;;5035839;28;20118;-83
2021/09/17 10:07:46;;;;;;;9.70;6.03;;;10.80;53.90;;;;;;5057759;28;20025;-82
2021/09/17 10:10:15;;;;;;;11.27;6.75;;;10.60;54.60;;;;;;5055637;28;20139;-81
2021/09/17 10:12:41;;;;;;;10.02;7.32;;;10.50;56.40;;;;;;5052193;28;20398;-79
2021/09/17 10:15:08;;;;;;;8.60;6.55;;;10.40;57.70;;;;;;5053052;28;20102;-78
2021/09/17 10:17:38;;;;;;;9.95;6.90;;;10.20;58.40;;;;;;5052941;28;20024;-82
2021/09/17 10:20:08;;;;;;;9.18;6.25;;;10.10;59.00;;;;;;5053719;28;20394;-83
2021/09/17 10:22:37;;;;;;;9.90;6.45;;;10.00;58.70;;;;;;5052116;28;20052;-84
2021/09/17 10:25:10;;;;;;;10.25;6.72;;;10.00;59.00;;;;;;5052918;28;20474;-81
2021/09/17 10:27:38;;;;;;;11.10;6.30;;;10.00;58.70;;;;;;5053599;28;20029;-85
2021/09/17 10:30:08;;;;;;;8.70;5.57;;;10.00;58.50;;;;;;5035164;28;20367;-84
2021/09/17 10:32:37;;;;;;;8.48;5.65;;;10.00;58.20;;;;;;5052750;28;20036;-85
2021/09/17 10:35:12;;;;;;;8.55;5.38;;;9.90;56.90;;;;;;5053398;28;20562;-84
2021/09/17 10:38:14;;;;;;;8.45;5.15;;;9.80;57.30;;;;;;5052917;28;20087;-83
2021/09/17 10:40:43;;;;;;;8.45;5.10;;;9.80;57.30;;;;;;5054106;28;20045;-85
2021/09/17 10:43:09;;;;;;;6.50;4.88;;;9.70;56.30;;;;;;5053709;28;20021;-85
2021/09/17 10:45:44;;;;;;;6.13;4.28;;;9.70;56.70;;;;;;5053591;28;20021;-85
2021/09/17 10:48:37;;;;;;;7.38;5.10;;;9.70;57.30;;;;;;5055068;28;20393;-84
2021/09/17 10:51:04;;;;;;;9.13;5.05;;;9.80;57.40;;;;;;5042956;28;20040;-84
2021/09/17 10:53:39;;;;;;;6.93;4.82;;;9.90;56.90;;;;;;5055635;28;20104;-84
2021/09/17 10:56:13;;;;;;;11.10;5.65;;;10.10;56.60;;;;;;5040003;28;20060;-83
2021/09/17 10:58:43;;;;;;;6.82;5.13;;;10.20;56.70;;;;;;5054863;28;20013;-84
2021/09/17 11:01:11;;;;;;;7.45;4.68;;;10.20;57.00;;;;;;5041396;28;20028;-84
2021/09/17 11:03:46;;;;;;;11.05;5.90;;;10.10;56.80;;;;;;5048658;28;20017;-88
2021/09/17 11:06:26;;;;;;;7.38;5.25;;;10.10;57.50;;;;;;5054787;28;20083;-84
2021/09/17 11:08:55;;;;;;;8.23;5.53;;;10.20;57.80;;;;;;5052807;28;20108;-85
2021/09/17 11:11:24;;;;;;;11.15;6.30;;;10.20;57.80;;;;;;5052732;28;20437;-84
2021/09/17 11:13:51;;;;;;;10.43;6.95;;;10.10;58.30;;;;;;5052478;28;20039;-84
2021/09/17 11:16:22;;;;;;;11.52;8.10;;;10.00;58.70;;;;;;5052629;28;20055;-85
2021/09/17 11:18:51;;;;;;;8.60;6.63;;;10.10;58.90;;;;;;5051503;28;20564;-83
2021/09/17 11:21:19;;;;;;;11.90;6.60;;;10.20;59.00;;;;;;5040818;28;20479;-83
2021/09/17 11:23:48;;;;;;;11.40;6.20;;;10.30;59.00;;;;;;5052859;28;20025;-85
2021/09/17 11:26:19;;;;;;;11.13;7.20;;;10.40;59.30;;;;;;5052919;28;20021;-84
2021/09/17 11:29:01;;;;;;;12.00;7.38;;;10.40;59.40;;;;;;5035466;28;20052;-84
2021/09/17 11:31:31;;;;;;;8.98;6.82;;;10.60;59.20;;;;;;5019307;28;20057;-84
2021/09/17 11:34:02;;;;;;;8.13;5.95;;;10.60;58.60;;;;;;5018077;28;20041;-83
2021/09/17 11:36:43;;;;;;;8.68;5.13;;;10.60;58.60;;;;;;5037952;28;20111;-84
2021/09/17 11:39:15;;;;;;;7.65;6.03;;;10.40;58.70;;;;;;5033016;28;20367;-84
2021/09/17 11:41:42;;;;;;;9.43;5.43;;;10.30;59.10;;;;;;5033435;28;20022;-84
2021/09/17 11:44:08;;;;;;;12.00;7.00;;;10.20;59.60;;;;;;5033298;28;20025;-85
2021/09/17 11:46:36;;;;;;;8.73;5.60;;;10.20;60.00;;;;;;5002523;28;20079;-87
2021/09/17 11:49:02;;;;;;;8.32;5.65;;;10.20;59.30;;;;;;5021335;28;20140;-83
2021/09/17 11:51:28;;;;;;;9.63;5.40;;;10.20;59.50;;;;;;5015214;28;20060;-84
2021/09/17 11:53:55;;;;;;;8.82;5.00;;;10.10;59.50;;;;;;5033372;28;20428;-84
2021/09/17 11:56:21;;;;;;;11.45;5.63;;;10.10;59.90;;;;;;5015475;28;20025;-84
2021/09/17 11:58:47;;;;;;;7.07;4.68;;;10.00;60.20;;;;;;5033954;28;20091;-82
2021/09/17 12:01:22;;;;;;;7.22;4.88;;;10.00;60.10;;;;;;5032995;28;20029;-85
2021/09/17 12:03:50;;;;;;;11.27;5.70;;;10.10;60.20;;;;;;5015246;28;20022;-84
2021/09/17 12:06:17;;;;;;;7.28;5.15;;;10.10;60.30;;;;;;5032965;28;20018;-85
2021/09/17 12:08:43;;;;;;;7.20;5.15;;;10.20;60.20;;;;;;5032357;28;20029;-84
2021/09/17 12:11:09;;;;;;;13.95;5.70;;;10.30;60.40;;;;;;5032716;28;20394;-85
2021/09/17 12:13:35;;;;;;;13.07;6.35;;;10.40;60.30;;;;;;5040467;28;20498;-84
2021/09/17 12:16:09;;;;;;;9.77;6.05;;;10.50;60.30;;;;;;5024518;28;20026;-85
2021/09/17 12:18:35;;;;;;;11.27;6.20;;;10.50;60.20;;;;;;5036181;28;20056;-85
2021/09/17 12:21:04;;;;;;;10.13;5.45;;;10.50;60.40;;;;;;5036065;28;20052;-85
2021/09/17 12:23:37;;;;;;;12.45;6.38;;;10.50;60.00;;;;;;5035708;28;20040;-85
2021/09/17 12:26:14;;;;;;;12.25;5.65;;;10.60;59.80;;;;;;5035917;28;20032;-85
2021/09/17 12:28:44;;;;;;;;;;;10.70;59.90;;;;;;5036266;28;20026;-86
2021/09/17 12:31:26;;;;;;;9.25;5.32;;;10.70;59.90;;;;;;5034251;28;19917;-84
2021/09/17 12:34:04;;;;;;;7.63;5.10;;;10.60;59.80;;;;;;5036015;28;20028;-83
2021/09/17 12:36:30;;;;;;;10.27;5.63;;;10.70;58.90;;;;;;5036508;28;20045;-85
2021/09/17 12:39:01;;;;;;;7.93;5.18;;;10.60;59.00;;;;;;5019977;28;20026;-86
2021/09/17 12:41:27;;;;;;;6.38;4.25;;;10.60;58.50;;;;;;5035977;28;20028;-85
2021/09/17 12:44:06;;;;;;;9.63;4.65;;;10.40;58.50;;;;;;5035763;28;20025;-86
2021/09/17 12:46:47;;;;;;;6.97;3.97;;;10.20;58.70;;;;;;5035764;28;20459;-84
2021/09/17 12:49:18;;;;;;;8.77;4.38;;;10.20;58.60;;;;;;5036114;28;20052;-86
2021/09/17 12:51:59;;;;;;;7.00;4.00;;;10.10;58.20;;;;;;5037089;28;20498;-84
2021/09/17 12:54:39;;;;;;;8.70;3.45;;;10.00;58.20;;;;;;5035870;28;20128;-83
2021/09/17 12:57:13;;;;;;;8.93;4.38;;;10.00;58.40;;;;;;5035435;28;20013;-83